Language selection

Weather shortcuts

Southern Georgian Bay: Past 24 Hour Conditions

 

Ajax - 45159

02:00 PM EDT 25 July 2024Buoy position: 43.77N 78.98W
Disclaimer

This table is a summary of hourly weather conditions for the past 24 hours.
Please note that these observations might not always be representative of weather conditions over their associated marine area.

Date / Time
(EDT)
Wind(knots) Wave height(m) Wave period(s) Pressure(kPa) Air tempC) Water tempC)
25 July 2024
14:00 WNW 9 gusts 13 0.20 2.2 102.0 22 21
13:00 WNW 6 gusts 9 0.20 2.1 102.0 21 21
12:00 NW 12 gusts 16 0.25 2.2 102.0 21 21
11:00 NW 13 gusts 19 0.27 2.4 102.0 21 21
10:00 NW 13 gusts 16 0.29 3.2 102.0 20 21
9:00 NW 15 gusts 20 0.34 3.3 102.0 19 21
8:00 NW 12 gusts 15 0.34 2.8 102.0 18 21
7:00 NW 12 gusts 15 0.29 3.1 101.9 18 21
6:00 WNW 12 gusts 15 0.33 2.9 101.9 18 21
5:00 WNW 14 gusts 18 0.33 2.5 101.9 19 21
4:00 WNW 15 gusts 18 0.34 2.6 101.8 19 21
3:00 WNW 14 gusts 17 0.30 2.9 101.8 19 21
2:00 WNW 14 gusts 17 0.33 3.0 101.8 20 21
1:00 WNW 12 gusts 14 0.25 2.4 101.8 20 21
0:00 NW 11 gusts 14 0.25 2.4 101.7 20 21
24 July 2024
23:00 WNW 10 gusts 12 0.21 3.1 101.7 21 21
22:00 WNW 9 gusts 11 0.19 3.4 101.6 21 21
21:00 NNW 9 gusts 11 0.27 3.6 101.6 22 22
20:00 NW 9 gusts 11 0.34 3.8 101.6 22 21
19:00 NNW 9 gusts 10 0.34 3.9 101.5 23 21
18:00 WSW 8 gusts 9 0.38 3.6 101.4 22 21
17:00 NW 15 gusts 17 0.53 3.6 101.5 22 21
16:00 SW 13 gusts 16 0.78 4.5 101.4 22 21
15:00 WSW 16 gusts 20 0.87 4.7 101.5 22 22
14:00 SW 18 gusts 22 0.66 3.7 101.4 22 22

Zoom-in to make a selection

Map of Great Lakes - Lake Erie and Lake Ontario marine weather areas N Huron - 45003 W Erie - 45005 S Huron - 45008 Lake Ontario - 45012 Port Stanley - 45132 Prince Edward Point - 45135 Georgian Bay - 45137 Grimsby - 45139 Port Colborne - 45142 South Georgian Bay - 45143 Lake St Clair - 45147 South Lake Huron - 45149 Lake Simcoe - 45151 Lake Nipissing - 45152 North Channel - 45154 Ajax - 45159 Sault Ste. Marie Airport Killarney Greater Sudbury Airport North Bay Airport Gore Bay-Manitoulin Airport Great Duck Island Brockville Grenadier Island Kingston Airport Collingwood Lagoon City Muskoka Airport Parry Sound Harbour Lake Simcoe Regional Airport Wiarton Airport Western Islands Cove Island Goderich Sarnia Chris Hadfield Airport Tobermory Harrow AAFC Long Point Port Weller St. Catharines / Niagara District Airport Southeast Shoal Vineland Station Welland-Pelham Windsor Airport Port Colborne Erieau Point Pelee Burlington Lift Bridge Cobourg Hamilton Munro Int'l Airport Oshawa Executive Airport Point Petre Toronto City Centre Airport CFB Trenton Peterborough Municipal Airport
Legend:
buoy Buoy
land station Land Station

Great Lakes - Lake Erie and Lake Ontario Area

Another Region

Features

New Predicting and Alerting Coastal Flooding Program

Find out about coastal flooding coverage, forecasts and warnings in your region

Date modified: